Time;durP1;ratioP1;P1;durP2;ratioP2;P2;SDS_P1;SDS_P2;PMS_P1;PMS_P2;Temp;Humidity;BMP_temperature;BMP_pressure;BME280_temperature;BME280_humidity;BME280_pressure;Samples;Min_cycle;Max_cycle;Signal;HPM_P1;HPM_P2
2022/11/09 00:01:33;;;;;;;7.78;3.13;;;;;;;;;;5071686;28;20459;-79
2022/11/09 00:04:00;;;;;;;7.07;2.40;;;;;;;;;;5067591;28;20050;-79
2022/11/09 00:06:27;;;;;;;9.63;3.40;;;;;;;;;;5074253;28;20036;-79
2022/11/09 00:08:53;;;;;;;9.00;2.50;;;;;;;;;;5076114;28;20039;-80
2022/11/09 00:11:20;;;;;;;6.30;2.20;;;;;;;;;;5076979;28;20032;-79
2022/11/09 00:13:46;;;;;;;5.78;2.28;;;;;;;;;;5075266;28;20055;-79
2022/11/09 00:16:14;;;;;;;8.52;2.25;;;;;;;;;;5071086;28;20537;-79
2022/11/09 00:18:46;;;;;;;4.78;2.10;;;;;;;;;;5075129;28;20406;-80
2022/11/09 00:21:19;;;;;;;5.43;2.05;;;;;;;;;;5073047;28;20557;-80
2022/11/09 00:23:46;;;;;;;6.65;2.80;;;;;;;;;;5074815;28;20426;-79
2022/11/09 00:26:13;;;;;;;6.93;2.30;;;;;;;;;;5075571;28;20119;-79
2022/11/09 00:28:39;;;;;;;5.38;2.50;;;;;;;;;;5070154;28;20130;-80
2022/11/09 00:31:11;;;;;;;7.53;2.58;;;;;;;;;;5076474;28;20468;-80
2022/11/09 00:33:37;;;;;;;6.28;2.47;;;;;;;;;;5086224;28;20152;-79
2022/11/09 00:36:09;;;;;;;8.82;2.78;;;;;;;;;;5090863;28;20040;-80
2022/11/09 00:38:35;;;;;;;8.80;3.00;;;;;;;;;;5090647;28;20411;-79
2022/11/09 00:41:02;;;;;;;5.50;2.80;;;;;;;;;;5093504;28;20543;-79
2022/11/09 00:43:28;;;;;;;6.90;2.80;;;;;;;;;;5091038;28;20127;-80
2022/11/09 00:45:54;;;;;;;6.53;2.85;;;;;;;;;;5091509;28;20276;-79
2022/11/09 00:48:20;;;;;;;6.45;2.80;;;;;;;;;;5087004;28;20044;-79
2022/11/09 00:50:53;;;;;;;9.30;3.05;;;;;;;;;;5091053;28;20513;-80
2022/11/09 00:53:20;;;;;;;10.18;2.97;;;;;;;;;;5090348;28;20051;-79
2022/11/09 00:55:55;;;;;;;9.68;2.80;;;;;;;;;;5094426;28;20559;-79
2022/11/09 00:58:21;;;;;;;7.95;2.80;;;;;;;;;;5092485;28;20079;-79
2022/11/09 01:00:47;;;;;;;6.03;2.58;;;;;;;;;;5094785;28;20476;-79
2022/11/09 01:03:14;;;;;;;6.60;3.00;;;;;;;;;;5096512;28;20043;-79
2022/11/09 01:05:40;;;;;;;7.38;3.40;;;;;;;;;;5089657;28;20031;-81
2022/11/09 01:08:06;;;;;;;6.88;2.80;;;;;;;;;;5086870;28;20051;-79
2022/11/09 01:10:32;;;;;;;5.25;2.90;;;;;;;;;;5095752;28;20043;-79
2022/11/09 01:12:58;;;;;;;4.00;2.70;;;;;;;;;;5092474;28;20032;-80
2022/11/09 01:15:24;;;;;;;8.57;2.72;;;;;;;;;;5092377;28;20107;-79
2022/11/09 01:17:50;;;;;;;5.85;3.15;;;;;;;;;;5096876;28;20525;-79
2022/11/09 01:20:16;;;;;;;11.32;3.08;;;;;;;;;;5091320;28;20130;-79
2022/11/09 01:22:42;;;;;;;6.90;2.80;;;;;;;;;;5106799;28;20044;-79
2022/11/09 01:25:09;;;;;;;9.05;2.70;;;;;;;;;;5107750;28;20047;-79
2022/11/09 01:27:35;;;;;;;4.90;2.60;;;;;;;;;;5107968;28;20118;-80
2022/11/09 01:30:01;;;;;;;5.95;2.53;;;;;;;;;;5102763;28;20483;-79
2022/11/09 01:32:27;;;;;;;5.05;2.45;;;;;;;;;;5107028;27;20515;-79
2022/11/09 01:34:53;;;;;;;7.20;2.55;;;;;;;;;;5104191;27;20138;-79
2022/11/09 01:37:19;;;;;;;8.55;2.97;;;;;;;;;;5105905;27;20587;-79
2022/11/09 01:39:45;;;;;;;9.73;3.17;;;;;;;;;;5130149;27;20043;-79
2022/11/09 01:42:11;;;;;;;6.25;2.85;;;;;;;;;;5111643;27;20043;-80
2022/11/09 01:44:40;;;;;;;9.45;2.92;;;;;;;;;;5108550;27;20150;-80
2022/11/09 01:47:12;;;;;;;4.68;2.70;;;;;;;;;;5101851;27;20479;-79
2022/11/09 01:49:42;;;;;;;4.97;3.10;;;;;;;;;;5097482;27;20126;-79
2022/11/09 01:52:21;;;;;;;10.10;3.47;;;;;;;;;;5099256;27;20491;-79
2022/11/09 01:54:57;;;;;;;6.10;3.13;;;;;;;;;;5098787;27;20051;-79
2022/11/09 01:57:27;;;;;;;8.70;3.35;;;;;;;;;;5098994;27;20051;-80
2022/11/09 01:59:56;;;;;;;7.88;2.90;;;;;;;;;;5099157;27;20381;-79
2022/11/09 02:02:22;;;;;;;9.65;3.30;;;;;;;;;;5094560;27;20047;-79
2022/11/09 02:04:54;;;;;;;6.10;3.28;;;;;;;;;;5119452;27;22046;-80
2022/11/09 02:07:21;;;;;;;8.20;3.40;;;;;;;;;;5113098;27;20047;-79
2022/11/09 02:09:58;;;;;;;9.50;3.50;;;;;;;;;;5091907;27;20415;-79
2022/11/09 02:12:25;;;;;;;7.63;3.75;;;;;;;;;;5095765;27;20039;-79
2022/11/09 02:14:52;;;;;;;7.78;3.40;;;;;;;;;;5093351;27;20074;-79
2022/11/09 02:17:19;;;;;;;10.98;3.67;;;;;;;;;;5113164;27;20038;-80
2022/11/09 02:19:45;;;;;;;6.97;3.72;;;;;;;;;;5120293;27;20039;-79
2022/11/09 02:22:11;;;;;;;8.55;3.83;;;;;;;;;;5119471;27;20367;-79
2022/11/09 02:24:37;;;;;;;9.27;3.63;;;;;;;;;;5096664;27;20047;-80
2022/11/09 02:27:04;;;;;;;8.40;3.70;;;;;;;;;;5117187;27;20513;-79
2022/11/09 02:29:41;;;;;;;11.10;3.78;;;;;;;;;;5114520;27;20063;-79
2022/11/09 02:32:09;;;;;;;6.57;3.45;;;;;;;;;;5117449;27;20050;-79
2022/11/09 02:34:35;;;;;;;10.52;3.90;;;;;;;;;;5099489;27;20392;-79
2022/11/09 02:37:01;;;;;;;7.05;3.22;;;;;;;;;;5109460;27;20114;-79
2022/11/09 02:39:28;;;;;;;9.38;3.42;;;;;;;;;;5099387;27;20482;-80
2022/11/09 02:42:05;;;;;;;10.13;3.80;;;;;;;;;;5107455;27;20122;-79
2022/11/09 02:44:33;;;;;;;10.93;3.58;;;;;;;;;;5115392;27;20455;-79
2022/11/09 02:46:59;;;;;;;10.43;3.40;;;;;;;;;;5107222;27;20130;-80
2022/11/09 02:49:25;;;;;;;10.20;3.60;;;;;;;;;;5098645;27;20874;-79
2022/11/09 02:51:51;;;;;;;12.57;3.50;;;;;;;;;;5100291;27;20051;-79
2022/11/09 02:54:17;;;;;;;7.63;3.63;;;;;;;;;;5100740;27;20399;-79
2022/11/09 02:56:46;;;;;;;9.57;3.25;;;;;;;;;;5114799;27;20062;-79
2022/11/09 02:59:12;;;;;;;10.63;3.80;;;;;;;;;;5099650;27;20043;-80
2022/11/09 03:01:38;;;;;;;11.85;3.40;;;;;;;;;;5116117;27;20188;-79
2022/11/09 03:04:04;;;;;;;7.57;3.15;;;;;;;;;;5113698;27;20132;-79
2022/11/09 03:06:33;;;;;;;11.30;3.60;;;;;;;;;;5095683;27;20394;-79
2022/11/09 03:09:00;;;;;;;8.68;3.55;;;;;;;;;;5117596;27;20475;-79
2022/11/09 03:11:26;;;;;;;16.23;3.60;;;;;;;;;;5094641;27;20047;-79
2022/11/09 03:13:52;;;;;;;9.90;3.30;;;;;;;;;;5117993;27;20035;-79
2022/11/09 03:16:18;;;;;;;8.93;3.15;;;;;;;;;;5116032;27;20105;-80
2022/11/09 03:18:44;;;;;;;15.35;4.15;;;;;;;;;;5096414;27;20030;-79
2022/11/09 03:21:10;;;;;;;12.50;3.80;;;;;;;;;;5132150;27;20125;-79
2022/11/09 03:23:37;;;;;;;8.80;3.15;;;;;;;;;;5105065;27;20035;-79
2022/11/09 03:26:05;;;;;;;7.70;3.28;;;;;;;;;;5111143;27;20075;-79
2022/11/09 03:28:31;;;;;;;11.23;3.28;;;;;;;;;;5111186;27;20045;-79
2022/11/09 03:30:57;;;;;;;10.25;3.28;;;;;;;;;;5107705;27;20035;-79
2022/11/09 03:33:23;;;;;;;9.43;3.10;;;;;;;;;;5128038;27;20054;-79
2022/11/09 03:35:50;;;;;;;11.27;3.88;;;;;;;;;;5122663;27;20047;-79
2022/11/09 03:38:16;;;;;;;13.73;3.60;;;;;;;;;;5110216;27;20389;-79
2022/11/09 03:40:42;;;;;;;18.80;3.42;;;;;;;;;;5122127;27;20043;-79
2022/11/09 03:43:08;;;;;;;11.13;3.38;;;;;;;;;;5108205;28;20050;-79
2022/11/09 03:45:34;;;;;;;12.80;3.88;;;;;;;;;;5108092;27;20050;-79
2022/11/09 03:48:00;;;;;;;12.63;3.45;;;;;;;;;;5126676;27;20079;-79
2022/11/09 03:50:27;;;;;;;12.43;3.55;;;;;;;;;;5108258;27;20466;-80
2022/11/09 03:52:53;;;;;;;10.13;3.92;;;;;;;;;;5113026;27;20045;-80
2022/11/09 03:55:20;;;;;;;13.57;3.17;;;;;;;;;;5103815;27;20050;-79
2022/11/09 03:57:46;;;;;;;11.07;3.22;;;;;;;;;;5103427;27;20055;-80
2022/11/09 04:00:13;;;;;;;11.73;3.03;;;;;;;;;;5105216;27;21673;-79
2022/11/09 04:02:39;;;;;;;10.23;3.00;;;;;;;;;;5128751;27;20070;-80
2022/11/09 04:05:05;;;;;;;9.15;3.63;;;;;;;;;;5097446;27;20086;-80
2022/11/09 04:07:31;;;;;;;8.07;3.17;;;;;;;;;;5113171;27;20130;-80
2022/11/09 04:09:57;;;;;;;9.98;2.92;;;;;;;;;;5097351;27;20185;-79
2022/11/09 04:12:24;;;;;;;10.50;3.38;;;;;;;;;;5094302;27;20467;-81
2022/11/09 04:14:50;;;;;;;13.40;2.97;;;;;;;;;;5114408;27;20043;-80
2022/11/09 04:17:16;;;;;;;10.45;3.10;;;;;;;;;;5112068;27;20093;-79
2022/11/09 04:19:42;;;;;;;12.48;3.35;;;;;;;;;;5114818;27;20082;-80
2022/11/09 04:22:08;;;;;;;11.05;3.90;;;;;;;;;;5100418;27;20043;-79
2022/11/09 04:24:34;;;;;;;10.50;3.53;;;;;;;;;;5112830;27;20047;-80
2022/11/09 04:27:00;;;;;;;9.13;3.03;;;;;;;;;;5120797;27;20497;-80
2022/11/09 04:29:26;;;;;;;9.95;3.83;;;;;;;;;;5109445;27;20070;-80
2022/11/09 04:31:52;;;;;;;11.95;3.88;;;;;;;;;;5104344;27;20046;-80
2022/11/09 04:34:18;;;;;;;9.82;3.50;;;;;;;;;;5108118;27;20067;-80
2022/11/09 04:36:44;;;;;;;13.68;3.55;;;;;;;;;;5125949;27;20047;-80
2022/11/09 04:39:10;;;;;;;13.80;3.40;;;;;;;;;;5124536;27;20035;-81
2022/11/09 04:41:36;;;;;;;9.30;3.03;;;;;;;;;;5119744;27;20035;-80
2022/11/09 04:44:03;;;;;;;7.00;3.20;;;;;;;;;;5116845;27;20050;-80
2022/11/09 04:46:29;;;;;;;9.38;3.45;;;;;;;;;;5111795;27;20455;-80
2022/11/09 04:48:55;;;;;;;13.35;3.38;;;;;;;;;;5118337;27;20043;-80
2022/11/09 04:51:21;;;;;;;10.75;3.30;;;;;;;;;;5134298;27;20035;-80
2022/11/09 04:53:47;;;;;;;14.80;4.00;;;;;;;;;;5102814;28;20123;-80
2022/11/09 04:56:13;;;;;;;13.55;3.50;;;;;;;;;;5105106;27;20462;-80
2022/11/09 04:58:39;;;;;;;10.60;3.30;;;;;;;;;;5129458;27;20082;-80
2022/11/09 05:01:13;;;;;;;12.18;3.30;;;;;;;;;;5117310;27;20047;-79
2022/11/09 05:03:39;;;;;;;10.15;3.58;;;;;;;;;;5104561;28;20051;-80
2022/11/09 05:08:51;;;;;;;15.68;3.55;;;;;;;;;;5115523;27;20051;-80
2022/11/09 05:11:17;;;;;;;8.15;3.47;;;;;;;;;;5109674;27;20051;-80
2022/11/09 05:13:43;;;;;;;13.13;3.40;;;;;;;;;;5131245;27;20145;-80
2022/11/09 05:16:09;;;;;;;10.73;3.20;;;;;;;;;;5099437;28;20046;-80
2022/11/09 05:18:35;;;;;;;10.57;3.65;;;;;;;;;;5108044;28;20126;-80
2022/11/09 05:21:01;;;;;;;13.60;3.53;;;;;;;;;;5102143;28;20131;-80
2022/11/09 05:26:12;;;;;;;9.70;2.85;;;;;;;;;;5143325;27;20050;-80
2022/11/09 05:28:38;;;;;;;11.57;3.25;;;;;;;;;;5103255;28;20848;-80
2022/11/09 05:31:04;;;;;;;11.13;3.17;;;;;;;;;;5124463;27;20749;-79
2022/11/09 05:33:31;;;;;;;10.10;3.10;;;;;;;;;;5104036;28;20502;-80
2022/11/09 05:35:57;;;;;;;14.25;3.17;;;;;;;;;;5115537;28;20130;-80
2022/11/09 05:38:23;;;;;;;10.63;2.70;;;;;;;;;;5105690;27;20109;-80
2022/11/09 05:40:53;;;;;;;11.68;3.15;;;;;;;;;;5109150;28;20047;-80
2022/11/09 05:43:20;;;;;;;14.40;3.38;;;;;;;;;;5124965;27;20043;-79
2022/11/09 05:45:46;;;;;;;9.35;3.45;;;;;;;;;;5106919;27;20129;-80
2022/11/09 05:48:13;;;;;;;8.88;3.05;;;;;;;;;;5126742;27;20039;-80
2022/11/09 05:50:40;;;;;;;12.05;3.28;;;;;;;;;;5131375;27;20039;-79
2022/11/09 05:53:06;;;;;;;12.20;3.60;;;;;;;;;;5115083;27;20039;-80
2022/11/09 05:55:32;;;;;;;9.40;3.10;;;;;;;;;;5117398;27;20498;-79
2022/11/09 05:57:58;;;;;;;6.57;3.63;;;;;;;;;;5114361;27;20735;-79
2022/11/09 06:00:24;;;;;;;10.05;3.15;;;;;;;;;;5090018;28;21302;-81
2022/11/09 06:02:50;;;;;;;9.18;3.10;;;;;;;;;;5092489;27;20420;-80
2022/11/09 06:05:16;;;;;;;9.60;3.28;;;;;;;;;;5096348;27;20043;-79
2022/11/09 06:07:42;;;;;;;10.40;3.88;;;;;;;;;;5115014;27;20406;-80
2022/11/09 06:10:08;;;;;;;8.75;2.75;;;;;;;;;;5100120;27;20074;-80
2022/11/09 06:12:34;;;;;;;14.30;8.50;;;;;;;;;;5099372;27;20046;-80
2022/11/09 06:15:00;;;;;;;11.63;4.13;;;;;;;;;;5098624;27;20112;-79
2022/11/09 06:17:26;;;;;;;9.38;3.25;;;;;;;;;;5112666;27;20039;-79
2022/11/09 06:19:52;;;;;;;13.82;3.67;;;;;;;;;;5101665;27;20063;-79
2022/11/09 06:22:18;;;;;;;8.43;3.35;;;;;;;;;;5114001;27;20039;-80
2022/11/09 06:24:45;;;;;;;8.35;2.70;;;;;;;;;;5093575;27;20090;-80
2022/11/09 06:27:11;;;;;;;11.68;3.05;;;;;;;;;;5115871;27;20473;-79
2022/11/09 06:29:36;;;;;;;11.88;3.45;;;;;;;;;;5090335;27;20043;-80
2022/11/09 06:32:03;;;;;;;11.40;3.10;;;;;;;;;;5093628;27;20039;-79
2022/11/09 06:34:29;;;;;;;7.88;3.33;;;;;;;;;;5111812;27;20942;-79
2022/11/09 06:36:55;;;;;;;12.18;2.92;;;;;;;;;;5116760;27;20066;-79
2022/11/09 06:39:22;;;;;;;11.52;3.20;;;;;;;;;;5094692;27;20054;-79
2022/11/09 06:41:48;;;;;;;12.57;2.80;;;;;;;;;;5116267;27;20126;-79
2022/11/09 06:44:17;;;;;;;10.80;2.80;;;;;;;;;;5111641;27;20508;-80
2022/11/09 06:46:43;;;;;;;9.70;2.92;;;;;;;;;;5102038;27;20043;-79
2022/11/09 06:49:10;;;;;;;11.10;2.85;;;;;;;;;;5117538;27;20066;-80
2022/11/09 06:51:38;;;;;;;9.25;2.65;;;;;;;;;;5092376;27;20539;-80
2022/11/09 06:54:04;;;;;;;8.88;2.88;;;;;;;;;;5099823;27;20051;-80
2022/11/09 06:56:30;;;;;;;10.95;3.13;;;;;;;;;;5116591;27;20039;-80
2022/11/09 06:58:56;;;;;;;8.80;3.00;;;;;;;;;;5117786;27;20050;-80
2022/11/09 07:01:25;;;;;;;7.10;2.88;;;;;;;;;;5117199;27;20390;-80
2022/11/09 07:03:51;;;;;;;7.68;3.10;;;;;;;;;;5114527;27;20050;-79
2022/11/09 07:06:20;;;;;;;7.32;3.00;;;;;;;;;;5117391;27;20051;-80
2022/11/09 07:08:46;;;;;;;7.00;3.05;;;;;;;;;;5097765;27;20058;-80
2022/11/09 07:11:15;;;;;;;7.43;3.08;;;;;;;;;;5111081;27;20470;-80
2022/11/09 07:13:41;;;;;;;7.05;3.03;;;;;;;;;;5100743;27;20051;-80
2022/11/09 07:16:07;;;;;;;12.73;3.13;;;;;;;;;;5096359;27;20055;-80
2022/11/09 07:18:33;;;;;;;8.20;3.00;;;;;;;;;;5119340;27;20046;-80
2022/11/09 07:20:59;;;;;;;6.13;2.72;;;;;;;;;;5098121;27;20147;-80
2022/11/09 07:23:25;;;;;;;7.85;2.88;;;;;;;;;;5120882;27;20052;-80
2022/11/09 07:25:51;;;;;;;8.85;3.28;;;;;;;;;;5134929;27;20039;-80
2022/11/09 07:28:18;;;;;;;8.52;3.42;;;;;;;;;;5123293;27;20446;-80
2022/11/09 07:30:44;;;;;;;8.48;3.42;;;;;;;;;;5124751;27;20047;-79
2022/11/09 07:33:14;;;;;;;9.95;3.38;;;;;;;;;;5128177;27;20061;-80
2022/11/09 07:35:40;;;;;;;8.68;3.40;;;;;;;;;;5110133;27;20161;-80
2022/11/09 07:38:06;;;;;;;8.50;3.63;;;;;;;;;;5109687;27;20038;-80
2022/11/09 07:40:32;;;;;;;6.53;3.10;;;;;;;;;;5107442;27;20051;-80
2022/11/09 07:43:02;;;;;;;8.07;3.30;;;;;;;;;;5118958;27;20118;-79
2022/11/09 07:45:29;;;;;;;10.57;3.20;;;;;;;;;;5106902;27;20046;-80
2022/11/09 07:47:56;;;;;;;12.18;3.88;;;;;;;;;;5114823;27;20513;-80
2022/11/09 07:50:22;;;;;;;10.02;3.58;;;;;;;;;;5131771;27;20031;-81
2022/11/09 07:52:48;;;;;;;9.63;3.40;;;;;;;;;;5131621;27;20464;-80
2022/11/09 07:55:14;;;;;;;8.27;3.30;;;;;;;;;;5127730;27;20070;-80
2022/11/09 07:57:40;;;;;;;7.80;3.05;;;;;;;;;;5108066;27;20057;-80
2022/11/09 08:00:06;;;;;;;10.70;3.30;;;;;;;;;;5098488;28;20052;-80
2022/11/09 08:02:32;;;;;;;7.80;3.20;;;;;;;;;;5111203;27;20039;-80
2022/11/09 08:04:58;;;;;;;10.43;3.47;;;;;;;;;;5111098;27;20513;-81
2022/11/09 08:07:24;;;;;;;9.10;3.85;;;;;;;;;;5112404;27;20122;-80
2022/11/09 08:09:50;;;;;;;8.38;3.17;;;;;;;;;;5108749;27;20078;-82
2022/11/09 08:12:16;;;;;;;9.10;3.50;;;;;;;;;;5110212;27;20040;-80
2022/11/09 08:14:42;;;;;;;9.68;4.03;;;;;;;;;;5131554;27;20047;-80
2022/11/09 08:17:08;;;;;;;7.90;3.20;;;;;;;;;;5107239;27;20050;-80
2022/11/09 08:19:34;;;;;;;8.82;3.30;;;;;;;;;;5113848;27;20047;-80
2022/11/09 08:22:03;;;;;;;14.13;4.03;;;;;;;;;;5108639;27;20050;-79
2022/11/09 08:24:32;;;;;;;9.30;3.78;;;;;;;;;;5127840;27;20155;-79
2022/11/09 08:26:58;;;;;;;11.70;3.60;;;;;;;;;;5114099;27;20089;-80
2022/11/09 08:29:27;;;;;;;11.02;3.53;;;;;;;;;;5112341;27;20579;-79
2022/11/09 08:31:53;;;;;;;11.50;3.25;;;;;;;;;;5106160;27;20039;-80
2022/11/09 08:34:19;;;;;;;11.48;3.75;;;;;;;;;;5106438;27;20076;-80
2022/11/09 08:36:45;;;;;;;9.40;3.50;;;;;;;;;;5128564;27;20364;-79
2022/11/09 08:39:11;;;;;;;6.68;3.00;;;;;;;;;;5129814;27;20384;-80
2022/11/09 08:41:37;;;;;;;10.40;3.30;;;;;;;;;;5144962;27;20043;-81
2022/11/09 08:44:03;;;;;;;8.30;3.72;;;;;;;;;;5097070;27;20049;-80
2022/11/09 08:46:29;;;;;;;11.65;4.05;;;;;;;;;;5118849;27;20045;-80
2022/11/09 08:48:55;;;;;;;7.65;3.30;;;;;;;;;;5107571;27;20058;-80
2022/11/09 08:51:24;;;;;;;5.80;2.92;;;;;;;;;;5110194;27;20051;-80
2022/11/09 08:53:50;;;;;;;10.95;3.80;;;;;;;;;;5122259;27;20476;-79
2022/11/09 08:56:17;;;;;;;6.93;3.10;;;;;;;;;;5111865;27;20139;-80
2022/11/09 08:58:44;;;;;;;12.93;3.50;;;;;;;;;;5110276;27;20049;-76
2022/11/09 09:01:10;;;;;;;11.60;3.58;;;;;;;;;;5129982;27;20051;-80
2022/11/09 09:03:37;;;;;;;12.20;3.47;;;;;;;;;;5114135;27;20056;-80
2022/11/09 09:06:07;;;;;;;9.32;3.13;;;;;;;;;;5103942;28;20096;-80
2022/11/09 09:08:33;;;;;;;10.73;3.22;;;;;;;;;;5129753;28;20050;-80
2022/11/09 09:11:03;;;;;;;10.55;3.60;;;;;;;;;;5125831;28;20556;-80
2022/11/09 09:13:32;;;;;;;9.90;3.38;;;;;;;;;;5111230;27;20050;-80
2022/11/09 09:15:58;;;;;;;9.43;2.95;;;;;;;;;;5109137;27;20103;-79
2022/11/09 09:18:24;;;;;;;10.13;3.25;;;;;;;;;;5112479;28;20039;-80
2022/11/09 09:20:50;;;;;;;8.02;3.30;;;;;;;;;;5111990;28;20088;-80
2022/11/09 09:23:16;;;;;;;10.10;3.17;;;;;;;;;;5102256;27;20095;-79
2022/11/09 09:25:43;;;;;;;10.18;3.17;;;;;;;;;;5111748;28;20039;-79
2022/11/09 09:28:09;;;;;;;10.57;3.17;;;;;;;;;;5106376;28;20040;-80
2022/11/09 09:30:35;;;;;;;15.13;3.90;;;;;;;;;;5105099;27;20055;-79
2022/11/09 09:33:01;;;;;;;11.40;3.10;;;;;;;;;;5111717;28;20062;-80
2022/11/09 09:35:27;;;;;;;9.25;3.10;;;;;;;;;;5111372;27;20051;-79
2022/11/09 09:37:54;;;;;;;11.18;3.30;;;;;;;;;;5129766;27;20044;-80
2022/11/09 09:40:31;;;;;;;8.50;2.90;;;;;;;;;;5104951;28;20074;-80
2022/11/09 09:42:57;;;;;;;8.32;2.90;;;;;;;;;;5107855;27;20082;-80
2022/11/09 09:45:25;;;;;;;7.95;3.33;;;;;;;;;;5113378;27;20035;-81
2022/11/09 09:48:05;;;;;;;7.45;3.40;;;;;;;;;;5130971;27;20078;-80
2022/11/09 09:50:36;;;;;;;8.85;3.30;;;;;;;;;;5112980;27;20043;-80
2022/11/09 09:53:17;;;;;;;7.72;3.28;;;;;;;;;;5131982;27;20047;-81
2022/11/09 09:55:49;;;;;;;11.15;4.05;;;;;;;;;;5116075;27;20474;-80
2022/11/09 09:58:23;;;;;;;9.05;3.40;;;;;;;;;;5110883;27;20051;-80
2022/11/09 10:00:51;;;;;;;9.02;3.42;;;;;;;;;;5109658;27;20035;-80
2022/11/09 10:03:19;;;;;;;18.83;3.53;;;;;;;;;;5115518;27;20043;-79
2022/11/09 10:05:48;;;;;;;11.48;3.80;;;;;;;;;;5132443;27;20046;-80
2022/11/09 10:08:33;;;;;;;9.20;3.60;;;;;;;;;;5112758;27;20035;-79
2022/11/09 10:11:02;;;;;;;9.57;3.47;;;;;;;;;;5114274;27;20051;-80
2022/11/09 10:13:38;;;;;;;7.70;3.40;;;;;;;;;;5106638;27;20445;-81
2022/11/09 10:16:10;;;;;;;14.25;4.20;;;;;;;;;;5108210;27;20043;-80
2022/11/09 10:18:54;;;;;;;8.38;3.67;;;;;;;;;;5125405;27;20040;-80
2022/11/09 10:21:31;;;;;;;11.20;4.03;;;;;;;;;;5105194;27;20097;-80
2022/11/09 10:24:13;;;;;;;10.60;3.55;;;;;;;;;;5111169;27;20043;-79
2022/11/09 10:26:44;;;;;;;11.93;4.63;;;;;;;;;;5121961;27;20042;-79
2022/11/09 10:29:33;;;;;;;11.50;3.72;;;;;;;;;;5127093;27;20043;-79
2022/11/09 10:32:13;;;;;;;9.95;3.78;;;;;;;;;;5106808;27;20130;-79
2022/11/09 10:34:43;;;;;;;10.30;3.65;;;;;;;;;;5131880;27;20090;-79
2022/11/09 10:37:13;;;;;;;9.23;3.63;;;;;;;;;;5109951;27;21726;-79
2022/11/09 10:39:46;;;;;;;8.75;4.03;;;;;;;;;;5114908;27;20494;-79
2022/11/09 10:42:12;;;;;;;8.80;4.07;;;;;;;;;;5115350;27;20055;-80
2022/11/09 10:44:38;;;;;;;10.70;3.78;;;;;;;;;;5105304;27;20070;-79
2022/11/09 10:47:10;;;;;;;12.10;4.10;;;;;;;;;;5105716;27;20119;-79
2022/11/09 10:49:36;;;;;;;7.90;4.15;;;;;;;;;;5111480;27;20537;-79
2022/11/09 10:52:03;;;;;;;10.02;4.55;;;;;;;;;;5111629;27;20051;-80
2022/11/09 10:54:33;;;;;;;12.70;4.20;;;;;;;;;;5114102;27;20508;-80
2022/11/09 10:57:18;;;;;;;7.60;3.97;;;;;;;;;;5113886;27;20047;-79
2022/11/09 10:59:57;;;;;;;10.15;3.92;;;;;;;;;;5110855;27;20072;-80
2022/11/09 11:02:27;;;;;;;8.15;3.70;;;;;;;;;;5106732;27;20065;-79
2022/11/09 11:05:02;;;;;;;10.98;3.58;;;;;;;;;;5126463;27;20486;-80
2022/11/09 11:07:28;;;;;;;14.73;4.68;;;;;;;;;;5131148;27;20054;-79
2022/11/09 11:09:54;;;;;;;10.10;4.20;;;;;;;;;;5109931;27;20394;-79
2022/11/09 11:12:20;;;;;;;7.53;3.90;;;;;;;;;;5112576;27;20042;-79
2022/11/09 11:14:46;;;;;;;11.15;4.22;;;;;;;;;;5100465;27;20047;-78
2022/11/09 11:17:25;;;;;;;8.88;3.97;;;;;;;;;;5110430;27;20057;-79
2022/11/09 11:19:51;;;;;;;8.32;4.00;;;;;;;;;;5111231;27;20057;-79
2022/11/09 11:22:21;;;;;;;9.32;4.00;;;;;;;;;;5111530;27;20043;-79
2022/11/09 11:24:52;;;;;;;7.65;4.05;;;;;;;;;;5111927;27;20103;-79
2022/11/09 11:27:24;;;;;;;9.35;4.20;;;;;;;;;;5130482;27;20043;-78
2022/11/09 11:29:54;;;;;;;13.50;4.30;;;;;;;;;;5112113;27;20039;-79
2022/11/09 11:32:23;;;;;;;13.55;5.05;;;;;;;;;;5102037;27;20039;-79
2022/11/09 11:34:51;;;;;;;10.93;3.83;;;;;;;;;;5113330;27;20051;-79
2022/11/09 11:37:20;;;;;;;10.55;4.45;;;;;;;;;;5097839;27;20047;-77
2022/11/09 11:39:56;;;;;;;12.05;4.10;;;;;;;;;;5096530;27;20071;-78
2022/11/09 11:42:48;;;;;;;10.52;4.10;;;;;;;;;;5108399;27;20042;-80
2022/11/09 11:45:16;;;;;;;7.53;3.25;;;;;;;;;;5091984;27;20048;-81
2022/11/09 11:47:47;;;;;;;8.23;3.28;;;;;;;;;;5126647;27;20343;-79
2022/11/09 11:50:31;;;;;;;8.73;3.08;;;;;;;;;;5107951;27;20039;-79
2022/11/09 11:52:57;;;;;;;7.90;3.10;;;;;;;;;;5131216;27;20039;-78
2022/11/09 11:55:39;;;;;;;8.35;3.00;;;;;;;;;;5103129;27;20043;-78
2022/11/09 11:58:05;;;;;;;7.80;3.20;;;;;;;;;;5110105;27;20458;-79
2022/11/09 12:00:35;;;;;;;3.28;2.20;;;;;;;;;;5135044;27;20038;-78
2022/11/09 12:03:27;;;;;;;3.22;1.95;;;;;;;;;;5131744;27;20039;-77
2022/11/09 12:06:14;;;;;;;4.80;2.10;;;;;;;;;;5132622;27;20035;-77
2022/11/09 12:09:00;;;;;;;2.90;1.50;;;;;;;;;;5104938;27;20062;-77
2022/11/09 12:11:39;;;;;;;2.03;1.40;;;;;;;;;;5088987;27;20047;-77
2022/11/09 12:14:17;;;;;;;1.95;1.40;;;;;;;;;;5124778;27;20047;-78
2022/11/09 12:17:10;;;;;;;1.50;1.30;;;;;;;;;;5103452;27;20046;-78
2022/11/09 12:19:54;;;;;;;3.92;1.60;;;;;;;;;;5111598;27;20189;-77
2022/11/09 12:22:29;;;;;;;2.45;1.80;;;;;;;;;;5126711;27;20055;-78
2022/11/09 12:25:13;;;;;;;2.97;1.70;;;;;;;;;;5124346;27;20082;-78
2022/11/09 12:27:45;;;;;;;5.80;2.65;;;;;;;;;;5129016;27;20058;-77
2022/11/09 12:30:17;;;;;;;3.78;1.80;;;;;;;;;;5105901;27;20479;-76
2022/11/09 12:32:50;;;;;;;4.03;2.10;;;;;;;;;;5106186;27;20047;-76
2022/11/09 12:35:16;;;;;;;6.38;2.03;;;;;;;;;;5123818;27;20035;-76
2022/11/09 12:37:49;;;;;;;3.85;2.30;;;;;;;;;;5127282;27;20075;-76
2022/11/09 12:40:19;;;;;;;5.38;1.92;;;;;;;;;;5124309;27;20057;-73
2022/11/09 12:42:48;;;;;;;3.80;1.90;;;;;;;;;;5103467;27;20105;-77
2022/11/09 12:45:20;;;;;;;3.40;1.80;;;;;;;;;;5124844;27;20440;-77
2022/11/09 12:47:46;;;;;;;5.45;2.00;;;;;;;;;;5103694;27;20092;-77
2022/11/09 12:50:17;;;;;;;6.88;2.25;;;;;;;;;;5124879;27;20079;-77
2022/11/09 12:52:44;;;;;;;7.57;2.28;;;;;;;;;;5104233;27;20051;-77
2022/11/09 12:55:13;;;;;;;4.43;1.88;;;;;;;;;;5102569;27;20055;-77
2022/11/09 12:57:39;;;;;;;9.15;2.42;;;;;;;;;;5128261;27;20055;-78
2022/11/09 13:00:05;;;;;;;9.48;3.03;;;;;;;;;;5103054;28;20101;-78
2022/11/09 13:02:34;;;;;;;6.93;2.30;;;;;;;;;;5107388;28;20482;-78
2022/11/09 13:05:05;;;;;;;10.07;2.72;;;;;;;;;;5122761;27;20047;-78
2022/11/09 13:07:36;;;;;;;13.38;2.88;;;;;;;;;;5108800;28;20042;-78
2022/11/09 13:10:03;;;;;;;11.50;3.35;;;;;;;;;;5106560;27;20060;-77
2022/11/09 13:12:29;;;;;;;12.85;3.28;;;;;;;;;;5106985;27;20043;-78
2022/11/09 13:14:55;;;;;;;7.03;2.97;;;;;;;;;;5110808;28;20387;-79
2022/11/09 13:17:24;;;;;;;8.65;2.60;;;;;;;;;;5110309;27;20077;-79
2022/11/09 13:19:53;;;;;;;8.68;2.47;;;;;;;;;;5114145;27;20111;-78
2022/11/09 13:22:22;;;;;;;8.30;3.13;;;;;;;;;;5118391;27;20055;-78
2022/11/09 13:24:51;;;;;;;10.38;2.70;;;;;;;;;;5111168;27;20051;-78
2022/11/09 13:27:32;;;;;;;11.60;3.25;;;;;;;;;;5115748;27;20046;-79
2022/11/09 13:29:59;;;;;;;16.73;3.30;;;;;;;;;;5136946;27;20134;-78
2022/11/09 13:32:29;;;;;;;12.05;3.10;;;;;;;;;;5111063;27;20031;-78
2022/11/09 13:34:59;;;;;;;9.43;2.88;;;;;;;;;;5116006;27;20146;-79
2022/11/09 13:37:40;;;;;;;8.40;2.58;;;;;;;;;;5115941;27;20057;-78
2022/11/09 13:40:43;;;;;;;15.98;3.67;;;;;;;;;;5103942;27;20049;-79
2022/11/09 13:43:09;;;;;;;15.90;3.25;;;;;;;;;;5083379;28;20408;-79
2022/11/09 13:45:35;;;;;;;11.18;2.28;;;;;;;;;;5116002;27;20036;-78
2022/11/09 13:48:02;;;;;;;12.77;2.75;;;;;;;;;;5114899;27;20046;-78
2022/11/09 13:50:29;;;;;;;14.65;3.35;;;;;;;;;;5132120;27;20045;-78
2022/11/09 13:52:57;;;;;;;8.93;2.70;;;;;;;;;;5124181;27;20099;-78
2022/11/09 13:55:23;;;;;;;6.82;2.60;;;;;;;;;;5108078;27;20047;-78
2022/11/09 13:57:49;;;;;;;7.43;3.10;;;;;;;;;;5129204;27;20395;-79
2022/11/09 14:00:18;;;;;;;8.77;2.70;;;;;;;;;;5124407;27;20538;-78
2022/11/09 14:02:52;;;;;;;7.93;2.45;;;;;;;;;;5114326;27;20051;-79
2022/11/09 14:05:27;;;;;;;10.48;2.85;;;;;;;;;;5101420;27;20046;-79
2022/11/09 14:07:53;;;;;;;5.10;2.25;;;;;;;;;;5143609;27;20490;-79
2022/11/09 14:10:25;;;;;;;9.35;2.40;;;;;;;;;;5129804;27;20050;-79
2022/11/09 14:13:11;;;;;;;7.70;2.30;;;;;;;;;;5114163;27;20599;-79
2022/11/09 14:15:37;;;;;;;6.38;2.20;;;;;;;;;;5125495;27;20051;-80
2022/11/09 14:18:03;;;;;;;4.82;1.88;;;;;;;;;;5116343;27;20047;-80
2022/11/09 14:20:48;;;;;;;10.13;2.33;;;;;;;;;;5101342;27;20590;-80
2022/11/09 14:23:21;;;;;;;4.93;1.90;;;;;;;;;;5110891;27;20445;-79
2022/11/09 14:25:48;;;;;;;5.82;2.35;;;;;;;;;;5115353;27;20087;-79
2022/11/09 14:28:20;;;;;;;4.40;2.10;;;;;;;;;;5109708;27;20520;-80
2022/11/09 14:30:46;;;;;;;5.35;2.10;;;;;;;;;;5111922;27;20119;-79
2022/11/09 14:33:20;;;;;;;5.13;2.05;;;;;;;;;;5128526;27;20054;-79
2022/11/09 14:35:51;;;;;;;8.98;2.13;;;;;;;;;;5109277;27;20051;-79
2022/11/09 14:38:18;;;;;;;5.00;1.80;;;;;;;;;;5107259;27;20104;-79
2022/11/09 14:40:45;;;;;;;7.88;1.80;;;;;;;;;;5123820;27;20047;-80
2022/11/09 14:43:27;;;;;;;6.70;2.40;;;;;;;;;;5132020;27;20468;-79
2022/11/09 14:46:16;;;;;;;8.63;2.20;;;;;;;;;;5120893;27;20086;-79
2022/11/09 14:48:49;;;;;;;13.95;2.88;;;;;;;;;;5113490;27;20051;-79
2022/11/09 14:51:15;;;;;;;7.55;2.50;;;;;;;;;;5100434;27;20428;-77
2022/11/09 14:53:42;;;;;;;15.70;2.72;;;;;;;;;;5126099;27;20126;-77